Jewel Of The Seas — C6FW9 — position and weather

sailwx.info

Track history (hours):
 
Tides and Currents Weather Stations Pressure Air Temp Water Temp Dewpoint Dewpoint Depression Visibility Wind Speed Wind Dir Waves Ship Positions

Jewel Of The Seas

Operator: Royal Caribbean Cruises Ltd

Last reported at 2018-Feb-21 11:53 UTC. Time now 2018-Feb-21 17:41 UTC.
Position N 14°36' W 061°04'.

Length 290 m; draft 8.6 m.

Type: Passenger vessel. MMSI: 311583000.

Date/timePositionNaut miles runAvg speedWind from/ knotsBaromVisibWave heightAir tempDewpointWater temp
2018-Feb-21 11:53N 14°36' W 061°04'6 9.4
2018-Feb-21 11:12N 14°37' W 061°11'418.1
2018-Feb-21 11:00N 14°39' W 061°14'4216.8
2018-Feb-21 08:30N 15°14' W 061°38'5114.5
2018-Feb-21 05:00N 16°00' W 062°00'1482.5 070 / 241015.010.8 24.0 -27.0
2018-Feb-21 04:50N 16°08' W 062°12'1017.5
2018-Feb-21 04:16N 16°16' W 062°17'517.5
2018-Feb-21 04:00N 16°20' W 062°20'917.5
2018-Feb-21 03:30N 16°27' W 062°24'917.5
2018-Feb-21 03:00N 16°35' W 062°29'917.6
2018-Feb-21 02:31N 16°42' W 062°34'7 4.4
2018-Feb-21 01:00N 16°48' W 062°30'4240.5 070 / 351015.0 5.4 -27.0
2018-Feb-20 23:57N 17°20' W 062°58'817.0
2018-Feb-20 23:28N 17°27' W 063°03'816.7
2018-Feb-20 22:59N 17°35' W 063°04'816.9
2018-Feb-20 22:30N 17°44' W 063°05'917.1
2018-Feb-20 22:00N 17°52' W 063°05'816.3
2018-Feb-20 21:30N 18°00' W 063°05'2 0.3
2018-Feb-20 14:46N 18°01' W 063°03'0 0.0
2018-Feb-20 14:05N 18°01' W 063°03'0 0.0
2018-Feb-20 12:49N 18°01' W 063°03'0 0.0
2018-Feb-20 12:22N 18°01' W 063°03'0 0.2
2018-Feb-20 11:44N 18°01' W 063°03'2 5.7
2018-Feb-20 11:24N 18°00' W 063°05'5 7.9
2018-Feb-20 10:45N 17°60' W 063°10'2 8.5
2018-Feb-20 10:29N 17°59' W 063°12'5 8.4
2018-Feb-20 09:55N 17°59' W 063°17'4 8.3
2018-Feb-20 09:29N 17°59' W 063°21'4 8.0
2018-Feb-20 08:56N 17°58' W 063°26'4 7.9
2018-Feb-20 08:25N 17°58' W 063°30'716.5
2018-Feb-20 08:00N 17°54' W 063°24'1184.7 070 / 301015.010.8 25.0 -27.0
2018-Feb-20 07:52N 17°58' W 063°35'3 7.7
2018-Feb-20 07:30N 17°58' W 063°38'4 7.8
2018-Feb-20 06:57N 17°58' W 063°42'52 6.6
2018-Feb-19 23:00N 17°48' W 064°36'   080 / 301016.0 5.4 -26.0
2018-Feb-17 15:59N 16°17' W 062°55'714.6
2018-Feb-17 15:29N 16°12' W 062°50'11014.6
2018-Feb-17 08:00N 14°54' W 061°30'2412.9 080 / 221015.0 5.4 25.7 -26.6
2018-Feb-17 06:10N 14°34' W 061°17'315.1
2018-Feb-17 05:59N 14°32' W 061°15'814.4
2018-Feb-17 05:27N 14°27' W 061°09'714.9
2018-Feb-17 05:01N 14°22' W 061°05'815.1
2018-Feb-17 04:30N 14°17' W 060°59'714.5
2018-Feb-17 04:00N 14°12' W 060°53'34 0.8
2018-Feb-15 08:39N 14°30' W 061°23'315.1
2018-Feb-15 08:26N 14°33' W 061°24'814.7
2018-Feb-15 07:53N 14°41' W 061°28'10115.2
2018-Feb-15 01:13N 16°19' W 061°55'315.2
2018-Feb-15 01:00N 16°22' W 061°55'815.0
2018-Feb-15 00:30N 16°29' W 061°56'714.8
2018-Feb-15 00:00N 16°37' W 061°56'715.0
2018-Feb-14 23:30N 16°44' W 061°57'714.9
2018-Feb-14 23:00N 16°51' W 061°57'815.0
2018-Feb-14 22:30N 16°59' W 061°58'815.2
2018-Feb-14 22:00N 17°07' W 061°58'510.3
2018-Feb-14 21:30N 17°08' W 061°53'2 3.6
2018-Feb-14 20:59N 17°07' W 061°51'0 0.0
2018-Feb-14 20:29N 17°07' W 061°51'0 0.0
2018-Feb-14 19:59N 17°07' W 061°51'0 0.0
2018-Feb-14 19:29N 17°07' W 061°51'0 0.0
2018-Feb-14 18:59N 17°07' W 061°51'0 0.0
2018-Feb-14 18:29N 17°07' W 061°51'0 0.0
2018-Feb-14 17:59N 17°07' W 061°51'0 0.0
2018-Feb-14 17:29N 17°07' W 061°51'0 0.0
2018-Feb-14 16:59N 17°07' W 061°51'0 0.0
2018-Feb-14 16:29N 17°07' W 061°51'0 0.0
2018-Feb-14 15:59N 17°07' W 061°51'0 0.0
2018-Feb-14 15:29N 17°07' W 061°51'0 0.0
2018-Feb-14 14:59N 17°07' W 061°51'0 0.0
2018-Feb-14 14:29N 17°07' W 061°51'0 0.0
2018-Feb-14 13:59N 17°07' W 061°51'0 0.0
2018-Feb-14 13:29N 17°07' W 061°51'0 0.0
2018-Feb-14 12:59N 17°07' W 061°51'0 0.0
2018-Feb-14 12:29N 17°07' W 061°51'0 0.0
2018-Feb-14 11:59N 17°07' W 061°51'1 2.5
2018-Feb-14 11:30N 17°08' W 061°52'4 9.0
2018-Feb-14 11:00N 17°10' W 061°56'611.9
2018-Feb-14 10:30N 17°12' W 062°02'611.8
2018-Feb-14 10:00N 17°10' W 062°08'611.8
2018-Feb-14 09:30N 17°08' W 062°14'611.6
2018-Feb-14 09:00N 17°07' W 062°20'13870.1
2018-Feb-14 09:00N 17°06' W 062°06'3218.8 080 / 281015.0 5.4 25.5 -26.2
2018-Feb-14 07:16N 17°02' W 062°39'1110.3
2018-Feb-14 06:14N 17°01' W 062°51'4 0.9
2018-Feb-14 02:05N 17°04' W 062°52'0 2.3
2018-Feb-14 01:55N 17°04' W 062°52'16 1.1
2018-Feb-13 10:14N 17°20' W 062°57'311.4
2018-Feb-13 10:00N 17°21' W 062°59'610.7
2018-Feb-13 09:27N 17°26' W 063°03'511.5
2018-Feb-13 08:59N 17°31' W 063°06'511.2
2018-Feb-13 08:30N 17°35' W 063°08'611.4
2018-Feb-13 07:59N 17°41' W 063°11'810.9
2018-Feb-13 07:13N 17°45' W 063°19'1355.3
2018-Feb-13 07:00N 17°42' W 063°06'17100.8 080 / 301014.0 5.4 25.3 -26.3
2018-Feb-13 06:50N 17°47' W 063°23'410.8
2018-Feb-13 06:28N 17°48' W 063°27'610.7
2018-Feb-13 05:54N 17°51' W 063°32'511.4
2018-Feb-13 05:28N 17°53' W 063°37'  
Track history (hours):
 
Tides and Currents Weather Stations Pressure Air Temp Water Temp Dewpoint Dewpoint Depression Visibility Wind Speed Wind Dir Waves Ship Positions

Jewel Of The Seas

Operator: Royal Caribbean Cruises Ltd

Last reported at 2018-Feb-21 11:53 UTC. Time now 2018-Feb-21 17:41 UTC.
Position N 14°36' W 061°04'.

Length 290 m; draft 8.6 m.

Type: Passenger vessel. MMSI: 311583000.

Date/timePositionNaut miles runAvg speedWind from/ knotsBaromVisibWave heightAir tempDewpointWater temp
2018-Feb-21 11:53N 14°36' W 061°04'6 9.4
2018-Feb-21 11:12N 14°37' W 061°11'418.1
2018-Feb-21 11:00N 14°39' W 061°14'4216.8
2018-Feb-21 08:30N 15°14' W 061°38'5114.5
2018-Feb-21 05:00N 16°00' W 062°00'1482.5 070 / 241015.010.8 24.0 -27.0
2018-Feb-21 04:50N 16°08' W 062°12'1017.5
2018-Feb-21 04:16N 16°16' W 062°17'517.5
2018-Feb-21 04:00N 16°20' W 062°20'917.5
2018-Feb-21 03:30N 16°27' W 062°24'917.5
2018-Feb-21 03:00N 16°35' W 062°29'917.6
2018-Feb-21 02:31N 16°42' W 062°34'7 4.4
2018-Feb-21 01:00N 16°48' W 062°30'4240.5 070 / 351015.0 5.4 -27.0
2018-Feb-20 23:57N 17°20' W 062°58'817.0
2018-Feb-20 23:28N 17°27' W 063°03'816.7
2018-Feb-20 22:59N 17°35' W 063°04'816.9
2018-Feb-20 22:30N 17°44' W 063°05'917.1
2018-Feb-20 22:00N 17°52' W 063°05'816.3
2018-Feb-20 21:30N 18°00' W 063°05'2 0.3
2018-Feb-20 14:46N 18°01' W 063°03'0 0.0
2018-Feb-20 14:05N 18°01' W 063°03'0 0.0
2018-Feb-20 12:49N 18°01' W 063°03'0 0.0
2018-Feb-20 12:22N 18°01' W 063°03'0 0.2
2018-Feb-20 11:44N 18°01' W 063°03'2 5.7
2018-Feb-20 11:24N 18°00' W 063°05'5 7.9
2018-Feb-20 10:45N 17°60' W 063°10'2 8.5
2018-Feb-20 10:29N 17°59' W 063°12'5 8.4
2018-Feb-20 09:55N 17°59' W 063°17'4 8.3
2018-Feb-20 09:29N 17°59' W 063°21'4 8.0
2018-Feb-20 08:56N 17°58' W 063°26'4 7.9
2018-Feb-20 08:25N 17°58' W 063°30'716.5
2018-Feb-20 08:00N 17°54' W 063°24'1184.7 070 / 301015.010.8 25.0 -27.0
2018-Feb-20 07:52N 17°58' W 063°35'3 7.7
2018-Feb-20 07:30N 17°58' W 063°38'4 7.8
2018-Feb-20 06:57N 17°58' W 063°42'52 6.6
2018-Feb-19 23:00N 17°48' W 064°36'   080 / 301016.0 5.4 -26.0
2018-Feb-17 15:59N 16°17' W 062°55'714.6
2018-Feb-17 15:29N 16°12' W 062°50'11014.6
2018-Feb-17 08:00N 14°54' W 061°30'2412.9 080 / 221015.0 5.4 25.7 -26.6
2018-Feb-17 06:10N 14°34' W 061°17'315.1
2018-Feb-17 05:59N 14°32' W 061°15'814.4
2018-Feb-17 05:27N 14°27' W 061°09'714.9
2018-Feb-17 05:01N 14°22' W 061°05'815.1
2018-Feb-17 04:30N 14°17' W 060°59'714.5
2018-Feb-17 04:00N 14°12' W 060°53'34 0.8
2018-Feb-15 08:39N 14°30' W 061°23'315.1
2018-Feb-15 08:26N 14°33' W 061°24'814.7
2018-Feb-15 07:53N 14°41' W 061°28'10115.2
2018-Feb-15 01:13N 16°19' W 061°55'315.2
2018-Feb-15 01:00N 16°22' W 061°55'815.0
2018-Feb-15 00:30N 16°29' W 061°56'714.8
2018-Feb-15 00:00N 16°37' W 061°56'715.0
2018-Feb-14 23:30N 16°44' W 061°57'714.9
2018-Feb-14 23:00N 16°51' W 061°57'815.0
2018-Feb-14 22:30N 16°59' W 061°58'815.2
2018-Feb-14 22:00N 17°07' W 061°58'510.3
2018-Feb-14 21:30N 17°08' W 061°53'2 3.6
2018-Feb-14 20:59N 17°07' W 061°51'0 0.0
2018-Feb-14 20:29N 17°07' W 061°51'0 0.0
2018-Feb-14 19:59N 17°07' W 061°51'0 0.0
2018-Feb-14 19:29N 17°07' W 061°51'0 0.0
2018-Feb-14 18:59N 17°07' W 061°51'0 0.0
2018-Feb-14 18:29N 17°07' W 061°51'0 0.0
2018-Feb-14 17:59N 17°07' W 061°51'0 0.0
2018-Feb-14 17:29N 17°07' W 061°51'0 0.0
2018-Feb-14 16:59N 17°07' W 061°51'0 0.0
2018-Feb-14 16:29N 17°07' W 061°51'0 0.0
2018-Feb-14 15:59N 17°07' W 061°51'0 0.0
2018-Feb-14 15:29N 17°07' W 061°51'0 0.0
2018-Feb-14 14:59N 17°07' W 061°51'0 0.0
2018-Feb-14 14:29N 17°07' W 061°51'0 0.0
2018-Feb-14 13:59N 17°07' W 061°51'0 0.0
2018-Feb-14 13:29N 17°07' W 061°51'0 0.0
2018-Feb-14 12:59N 17°07' W 061°51'0 0.0
2018-Feb-14 12:29N 17°07' W 061°51'0 0.0
2018-Feb-14 11:59N 17°07' W 061°51'1 2.5
2018-Feb-14 11:30N 17°08' W 061°52'4 9.0
2018-Feb-14 11:00N 17°10' W 061°56'611.9
2018-Feb-14 10:30N 17°12' W 062°02'611.8
2018-Feb-14 10:00N 17°10' W 062°08'611.8
2018-Feb-14 09:30N 17°08' W 062°14'611.6
2018-Feb-14 09:00N 17°07' W 062°20'13870.1
2018-Feb-14 09:00N 17°06' W 062°06'3218.8 080 / 281015.0 5.4 25.5 -26.2
2018-Feb-14 07:16N 17°02' W 062°39'1110.3
2018-Feb-14 06:14N 17°01' W 062°51'4 0.9
2018-Feb-14 02:05N 17°04' W 062°52'0 2.3
2018-Feb-14 01:55N 17°04' W 062°52'16 1.1
2018-Feb-13 10:14N 17°20' W 062°57'311.4
2018-Feb-13 10:00N 17°21' W 062°59'610.7
2018-Feb-13 09:27N 17°26' W 063°03'511.5
2018-Feb-13 08:59N 17°31' W 063°06'511.2
2018-Feb-13 08:30N 17°35' W 063°08'611.4
2018-Feb-13 07:59N 17°41' W 063°11'810.9
2018-Feb-13 07:13N 17°45' W 063°19'1355.3
2018-Feb-13 07:00N 17°42' W 063°06'17100.8 080 / 301014.0 5.4 25.3 -26.3
2018-Feb-13 06:50N 17°47' W 063°23'410.8
2018-Feb-13 06:28N 17°48' W 063°27'610.7
2018-Feb-13 05:54N 17°51' W 063°32'511.4
2018-Feb-13 05:28N 17°53' W 063°37'  

Dump ship's entire track history